Current Weather

Fox Stephens Fld - Gilmer Muni

Gilmer, Texas (KJXI)

Report from: Friday, February 23, 2024 7:15 PM UTC
Current time: Friday, February 23, 2024 7:35 PM UTC

Nearby weather – Weather history – Daily summaries
Weather forecast

Temperature20.2°C (68.4°F)
Dew point-2.6°C (27.3°F)
Winds 11 kts (5.7 m/s, 12.7 mph) Northwest (320°)
Wind gusts 17 kts (8.7 m/s, 19.6 mph)
Visibility10 mi. (16.1 km)
Clouds Sky clear
Altimeter30.04 in.Hg (1017 mB)
Relative humidity21 %
Density altitude556 ft. (169 m)
Remarks Fully automated report
Automated weather observing station with precipitation discriminator
Flight conditions Visual Meteorological Conditions
Raw dataKJXI 231915Z AUTO 32011G17KT 10SM CLR 20/M03 A3004 RMK AO2 T02021026
An error has occurred. This application may no longer respond until reloaded. Reload 🗙